Time;durP1;ratioP1;P1;durP2;ratioP2;P2;SDS_P1;SDS_P2;PMS_P1;PMS_P2;Temp;Humidity;BMP_temperature;BMP_pressure;BME280_temperature;BME280_humidity;BME280_pressure;Samples;Min_cycle;Max_cycle;Signal;HPM_P1;HPM_P2
2022/03/29 00:00:10;;;;;;;;;37.75;31.25;;;;;17.85;30.43;100888.75;4972822;28;46539;-62
2022/03/29 00:02:36;;;;;;;;;39.75;32.00;;;;;17.88;30.43;100895.75;4977331;28;45232;-63
2022/03/29 00:05:04;;;;;;;;;39.25;31.00;;;;;17.82;30.51;100880.06;4977956;28;45216;-62
2022/03/29 00:07:30;;;;;;;;;36.50;31.00;;;;;17.83;30.58;100884.44;4977767;28;45478;-63
2022/03/29 00:09:55;;;;;;;;;38.25;32.00;;;;;17.83;30.66;100873.81;4977375;28;45406;-62
2022/03/29 00:12:21;;;;;;;;;39.75;33.00;;;;;17.83;30.71;100876.47;4977896;28;45305;-62
2022/03/29 00:14:46;;;;;;;;;36.00;30.75;;;;;17.78;30.88;100862.50;4976580;27;45343;-62
2022/03/29 00:17:12;;;;;;;;;36.75;32.75;;;;;17.79;30.68;100867.75;4976599;28;45473;-62
2022/03/29 00:19:37;;;;;;;;;40.00;31.50;;;;;17.79;30.80;100864.25;4977591;28;45937;-62
2022/03/29 00:22:03;;;;;;;;;39.25;30.75;;;;;17.76;30.88;100854.63;4977503;28;45350;-62
2022/03/29 00:24:28;;;;;;;;;36.25;30.00;;;;;17.75;30.75;100852.00;4976395;28;45259;-62
2022/03/29 00:26:53;;;;;;;;;35.25;30.00;;;;;17.74;30.98;100852.94;4977724;28;45208;-62
2022/03/29 00:29:19;;;;;;;;;36.50;31.00;;;;;17.73;30.84;100841.44;4977596;28;46232;-62
2022/03/29 00:31:44;;;;;;;;;39.75;31.50;;;;;17.70;31.03;100831.81;4976339;28;45211;-62
2022/03/29 00:34:09;;;;;;;;;34.25;29.25;;;;;17.69;31.08;100831.88;4977581;28;45616;-62
2022/03/29 00:36:35;;;;;;;;;45.00;34.00;;;;;17.68;31.03;100835.47;4976049;28;45505;-62
2022/03/29 00:39:00;;;;;;;;;43.25;34.50;;;;;17.63;31.25;100824.16;4977273;28;45895;-62
2022/03/29 00:41:26;;;;;;;;;35.00;31.75;;;;;17.63;31.11;100821.50;4977327;28;45226;-62
2022/03/29 00:43:51;;;;;;;;;37.25;31.50;;;;;17.60;30.85;100824.31;4976215;28;45430;-62
2022/03/29 00:46:17;;;;;;;;;38.25;31.75;;;;;17.59;31.13;100823.44;4977366;28;45212;-62
2022/03/29 00:48:43;;;;;;;;;34.75;31.00;;;;;17.57;31.09;100811.13;4977137;28;45985;-62
2022/03/29 00:51:09;;;;;;;;;38.50;31.75;;;;;17.54;31.10;100812.13;4977023;28;45333;-62
2022/03/29 00:53:34;;;;;;;;;37.50;31.25;;;;;17.53;31.31;100803.31;4992346;28;45306;-62
2022/03/29 00:56:02;;;;;;;;;41.25;34.00;;;;;17.45;31.46;100796.59;5011810;28;45261;-63
2022/03/29 00:58:27;;;;;;;;;37.75;26.25;;;;;17.50;31.19;100800.75;4984727;28;45335;-62
2022/03/29 01:00:58;;;;;;;;;36.75;33.00;;;;;17.49;31.28;100795.53;4977112;28;45360;-62
2022/03/29 01:03:23;;;;;;;;;37.50;32.25;;;;;17.45;31.34;100781.50;4991805;28;45379;-62
2022/03/29 01:05:49;;;;;;;;;40.25;32.00;;;;;17.45;31.58;100773.53;4976961;28;45327;-62
2022/03/29 01:08:14;;;;;;;;;38.00;27.75;;;;;17.44;31.37;100774.47;4976873;28;46193;-62
2022/03/29 01:10:40;;;;;;;;;41.50;31.25;;;;;17.43;31.80;100771.88;4976491;28;45291;-62
2022/03/29 01:13:05;;;;;;;;;41.50;31.75;;;;;17.41;31.65;100774.59;4978781;28;45263;-63
2022/03/29 01:15:35;;;;;;;;;39.00;32.50;;;;;17.41;31.58;100771.06;4979951;28;45310;-62
2022/03/29 01:18:01;;;;;;;;;35.25;28.00;;;;;17.38;31.35;100766.75;4979771;28;46116;-62
2022/03/29 01:20:27;;;;;;;;;43.75;35.50;;;;;17.37;31.31;100768.56;4980012;28;45263;-62
2022/03/29 01:22:55;;;;;;;;;39.50;31.75;;;;;17.35;31.59;100762.44;4978675;28;45276;-62
2022/03/29 01:25:28;;;;;;;;;43.00;32.50;;;;;17.33;31.41;100758.13;4979832;28;45472;-62
2022/03/29 01:27:53;;;;;;;;;37.50;29.00;;;;;17.32;31.29;100762.56;4979737;28;46618;-64
2022/03/29 01:30:21;;;;;;;;;44.00;34.25;;;;;17.31;31.35;100747.56;4979778;28;45440;-63
2022/03/29 01:32:49;;;;;;;;;38.50;32.25;;;;;17.29;31.44;100738.78;4979875;28;45308;-63
2022/03/29 01:35:25;;;;;;;;;36.00;31.50;;;;;17.28;31.33;100745.06;4979812;28;45177;-63
2022/03/29 01:37:52;;;;;;;;;40.50;28.75;;;;;17.22;31.55;100732.88;4979366;28;46339;-63
2022/03/29 01:40:20;;;;;;;;;38.75;30.50;;;;;17.25;31.58;100742.50;4979409;28;45235;-63
2022/03/29 01:42:48;;;;;;;;;34.75;31.00;;;;;17.23;31.64;100733.72;4979906;28;45401;-63
2022/03/29 01:45:15;;;;;;;;;35.75;30.25;;;;;17.21;31.74;100727.63;4979535;28;45528;-63
2022/03/29 01:47:40;;;;;;;;;33.25;28.25;;;;;17.20;31.79;100726.75;4979627;28;45384;-63
2022/03/29 01:50:07;;;;;;;;;37.50;31.75;;;;;17.19;31.73;100722.41;4979367;28;45220;-63
2022/03/29 01:52:40;;;;;;;;;31.50;28.00;;;;;17.17;31.51;100726.06;4978311;28;45375;-63
2022/03/29 01:55:08;;;;;;;;;35.00;30.25;;;;;17.14;31.67;100710.22;4979321;28;45516;-63
2022/03/29 01:57:33;;;;;;;;;30.50;28.75;;;;;17.13;31.78;100712.03;5017544;28;46178;-63
2022/03/29 02:02:42;;;;;;;;;34.75;29.50;;;;;17.10;31.45;100717.47;4979607;28;45237;-63
2022/03/29 02:05:08;;;;;;;;;28.25;26.00;;;;;17.11;31.73;100713.88;4979209;28;45280;-63
2022/03/29 02:07:33;;;;;;;;;38.75;29.50;;;;;17.10;31.27;100711.28;4979343;28;45448;-63
2022/03/29 02:09:58;;;;;;;;;35.25;30.25;;;;;17.09;31.75;100704.25;4978874;28;45558;-62
2022/03/29 02:12:24;;;;;;;;;37.75;31.50;;;;;17.09;31.73;100699.78;4994871;28;45420;-63
2022/03/29 02:14:49;;;;;;;;;38.25;31.75;;;;;17.09;31.86;100690.97;4979231;28;45383;-63
2022/03/29 02:17:15;;;;;;;;;36.50;28.75;;;;;17.06;31.75;100690.16;4979397;28;45425;-63
2022/03/29 02:19:40;;;;;;;;;39.00;31.75;;;;;17.06;31.87;100689.31;4979081;28;45242;-63
2022/03/29 02:22:05;;;;;;;;;43.00;34.50;;;;;17.01;31.91;100684.19;4979132;28;45415;-64
2022/03/29 02:24:31;;;;;;;;;35.75;31.50;;;;;17.03;31.88;100678.81;4978235;28;45299;-64
2022/03/29 02:26:56;;;;;;;;;38.25;29.75;;;;;17.02;31.89;100680.63;4979057;28;46020;-63
2022/03/29 02:29:21;;;;;;;;;33.75;30.25;;;;;17.01;32.01;100670.06;4978928;28;45319;-63
2022/03/29 02:31:47;;;;;;;;;32.75;31.75;;;;;17.00;31.71;100657.72;4978002;28;45686;-62
2022/03/29 02:34:12;;;;;;;;;31.25;27.75;;;;;16.99;31.91;100654.22;4978929;28;45518;-62
2022/03/29 02:36:37;;;;;;;;;35.50;26.25;;;;;16.98;32.16;100655.13;4977471;28;48043;-63
2022/03/29 02:39:03;;;;;;;;;31.00;26.75;;;;;16.95;32.18;100647.28;4978811;28;45347;-63
2022/03/29 02:41:28;;;;;;;;;32.00;30.25;;;;;16.95;32.22;100649.94;4979077;28;45220;-63
2022/03/29 02:43:54;;;;;;;;;33.00;30.00;;;;;16.93;32.02;100642.97;4977697;28;45485;-63
2022/03/29 02:46:19;;;;;;;;;33.75;29.25;;;;;16.92;32.16;100634.16;4978891;28;45931;-62
2022/03/29 02:48:45;;;;;;;;;35.25;32.50;;;;;16.93;31.94;100635.00;4979142;28;45133;-62
2022/03/29 02:51:10;;;;;;;;;41.00;31.00;;;;;16.92;32.05;100630.63;4978747;28;45411;-62
2022/03/29 02:53:35;;;;;;;;;30.25;24.25;;;;;16.89;32.21;100632.47;4977623;28;45323;-62
2022/03/29 02:56:01;;;;;;;;;25.75;24.25;;;;;16.88;32.13;100625.44;5014456;28;46345;-63
2022/03/29 02:58:26;;;;;;;;;33.25;26.75;;;;;16.88;32.31;100627.25;4986278;27;45222;-62
2022/03/29 03:00:52;;;;;;;;;39.00;30.00;;;;;16.86;32.17;100631.72;4978828;28;45481;-62
2022/03/29 03:03:17;;;;;;;;;33.00;32.25;;;;;16.86;31.99;100623.78;4978642;28;45224;-62
2022/03/29 03:05:43;;;;;;;;;29.00;25.25;;;;;16.84;32.15;100621.19;4978469;28;45313;-62
2022/03/29 03:08:08;;;;;;;;;34.50;29.75;;;;;16.83;32.33;100621.22;4977244;28;45375;-63
2022/03/29 03:10:34;;;;;;;;;36.50;32.25;;;;;16.82;32.38;100615.06;4978497;28;45460;-63
2022/03/29 03:12:59;;;;;;;;;32.50;28.00;;;;;16.82;32.17;100614.22;4978488;28;45458;-63
2022/03/29 03:15:26;;;;;;;;;35.00;31.00;;;;;16.79;32.45;100603.72;4978884;28;45292;-63
2022/03/29 03:17:53;;;;;;;;;27.50;26.00;;;;;16.80;32.31;100614.25;4977150;28;45956;-62
2022/03/29 03:20:20;;;;;;;;;33.00;27.75;;;;;16.78;32.24;100609.94;4977159;28;45292;-63
2022/03/29 03:22:46;;;;;;;;;35.00;31.00;;;;;16.76;32.39;100623.28;4978180;27;45460;-63
2022/03/29 03:25:11;;;;;;;;;33.00;29.75;;;;;16.73;32.47;100618.97;4977069;28;46172;-63
2022/03/29 03:27:40;;;;;;;;;31.25;26.75;;;;;16.73;32.28;100613.66;4978296;28;45201;-63
2022/03/29 03:30:08;;;;;;;;;29.50;25.50;;;;;16.72;32.17;100611.09;4977367;28;45547;-63
2022/03/29 03:32:33;;;;;;;;;29.00;26.25;;;;;16.61;32.57;100595.59;4978149;28;45550;-63
2022/03/29 03:34:59;;;;;;;;;29.00;27.25;;;;;16.70;32.52;100618.25;4976857;28;48189;-63
2022/03/29 03:37:26;;;;;;;;;32.25;26.25;;;;;16.68;32.38;100614.81;4978011;28;45174;-64
2022/03/29 03:39:51;;;;;;;;;34.00;30.75;;;;;16.66;32.25;100598.94;4978533;28;45160;-63
2022/03/29 03:42:17;;;;;;;;;27.50;26.00;;;;;16.65;32.43;100599.00;4978196;28;45191;-64
2022/03/29 03:44:42;;;;;;;;;29.00;27.50;;;;;16.63;32.12;100590.22;4978175;28;46137;-63
2022/03/29 03:47:08;;;;;;;;;29.00;26.00;;;;;16.63;32.08;100592.88;4978272;28;45252;-63
2022/03/29 03:49:35;;;;;;;;;27.50;25.00;;;;;16.62;32.47;100583.22;4978502;28;45354;-63
2022/03/29 03:52:00;;;;;;;;;40.75;30.25;;;;;16.61;32.38;100585.00;4977815;27;45496;-63
2022/03/29 03:54:26;;;;;;;;;35.75;28.00;;;;;16.60;32.28;100577.97;4977995;28;46179;-63
2022/03/29 03:56:51;;;;;;;;;28.50;23.75;;;;;16.59;32.03;100576.25;5034887;28;45394;-63
2022/03/29 03:59:17;;;;;;;;;34.00;30.50;;;;;16.59;32.51;100565.66;4967124;28;45382;-63
2022/03/29 04:01:42;;;;;;;;;25.00;22.25;;;;;16.57;32.61;100571.00;4976559;28;45335;-63
2022/03/29 04:04:08;;;;;;;;;33.75;28.25;;;;;16.53;32.12;100564.09;4977900;28;46384;-63
2022/03/29 04:06:33;;;;;;;;;33.75;28.00;;;;;16.57;32.32;100571.00;4977694;28;45350;-63
2022/03/29 04:08:59;;;;;;;;;31.00;26.75;;;;;16.55;32.23;100564.91;4978133;28;45190;-64
2022/03/29 04:11:24;;;;;;;;;84.33;70.00;;;;;16.55;32.40;100562.25;4977663;28;45433;-63
2022/03/29 04:13:49;;;;;;;;;26.75;21.75;;;;;16.54;32.33;100567.59;4977928;28;46190;-63
2022/03/29 04:16:15;;;;;;;;;24.00;23.00;;;;;16.54;32.39;100559.66;4976569;28;45323;-63
2022/03/29 04:18:40;;;;;;;;;24.25;21.50;;;;;16.46;32.14;100549.38;4977945;28;45848;-63
2022/03/29 04:21:07;;;;;;;;;29.00;25.75;;;;;16.45;32.44;100552.94;4977594;28;45332;-64
2022/03/29 04:23:35;;;;;;;;;32.75;26.50;;;;;16.50;32.52;100558.94;4977771;28;45368;-63
2022/03/29 04:26:00;;;;;;;;;29.00;25.75;;;;;16.51;32.15;100558.00;4977425;28;45471;-64
2022/03/29 04:28:26;;;;;;;;;34.50;28.00;;;;;16.48;32.24;100547.53;4976488;28;45319;-63
2022/03/29 04:30:55;;;;;;;;;28.50;26.00;;;;;16.49;32.05;100553.69;4977559;28;45327;-65
2022/03/29 04:33:21;;;;;;;;;33.50;29.50;;;;;16.49;32.05;100561.63;4976244;28;47199;-63
2022/03/29 04:35:46;;;;;;;;;40.00;33.50;;;;;16.48;32.14;100562.59;4977236;28;45309;-63
2022/03/29 04:38:12;;;;;;;;;27.00;26.00;;;;;16.46;32.40;100559.97;4977759;28;45307;-63
2022/03/29 04:40:37;;;;;;;;;36.75;30.25;;;;;16.45;32.39;100558.25;4977318;28;45462;-63
2022/03/29 04:43:02;;;;;;;;;31.50;28.25;;;;;16.47;32.18;100558.19;4992667;28;45242;-63
2022/03/29 04:45:28;;;;;;;;;28.50;24.50;;;;;16.44;32.17;100563.63;4976097;28;45923;-63
2022/03/29 04:47:53;;;;;;;;;24.25;24.25;;;;;16.43;32.42;100565.41;4979404;28;45535;-63
2022/03/29 04:50:18;;;;;;;;;28.00;24.25;;;;;16.42;32.45;100564.53;4980220;28;45473;-63
2022/03/29 04:52:44;;;;;;;;;24.25;21.75;;;;;16.39;32.52;100547.91;4980236;28;46152;-63
2022/03/29 04:55:14;;;;;;;;;27.25;26.25;;;;;16.37;32.54;100545.31;4980073;28;45258;-63
2022/03/29 04:57:43;;;;;;;;;28.50;24.75;;;;;16.38;32.57;100548.84;4963291;28;45308;-63
2022/03/29 05:00:12;;;;;;;;;21.75;16.50;;;;;16.38;32.37;100544.38;4976843;28;45343;-63
2022/03/29 05:02:41;;;;;;;;;32.50;26.00;;;;;16.38;32.58;100546.19;4979994;28;45347;-63
2022/03/29 05:05:09;;;;;;;;;33.00;26.50;;;;;16.37;32.27;100549.75;4978883;28;45357;-63
2022/03/29 05:07:35;;;;;;;;;25.50;20.75;;;;;16.35;32.18;100541.00;4979934;28;45370;-64
2022/03/29 05:10:01;;;;;;;;;29.50;21.75;;;;;16.35;32.67;100535.69;4979767;28;45326;-63
2022/03/29 05:12:26;;;;;;;;;33.00;24.75;;;;;16.33;32.48;100542.88;4979925;28;46055;-64
2022/03/29 05:14:51;;;;;;;;;24.75;20.00;;;;;16.33;32.15;100545.50;4979897;28;45367;-63
2022/03/29 05:17:17;;;;;;;;;21.75;20.50;;;;;16.30;32.55;100546.50;4980111;28;45381;-64
2022/03/29 05:19:42;;;;;;;;;24.75;23.50;;;;;16.30;32.74;100559.75;4994908;28;45548;-64
2022/03/29 05:22:07;;;;;;;;;31.25;23.25;;;;;16.29;32.82;100551.84;4979634;28;45263;-63
2022/03/29 05:24:33;;;;;;;;;30.25;26.75;;;;;16.26;32.55;100544.88;4979667;28;45245;-63
2022/03/29 05:26:58;;;;;;;;;25.00;24.00;;;;;16.24;32.73;100536.16;4980094;28;45271;-63
2022/03/29 05:29:25;;;;;;;;;24.75;22.25;;;;;16.26;32.39;100539.59;4979692;28;45162;-63
2022/03/29 05:31:50;;;;;;;;;24.50;22.25;;;;;16.24;32.50;100537.00;4979847;28;47367;-63
2022/03/29 05:34:16;;;;;;;;;24.25;21.25;;;;;16.23;32.67;100529.13;4979540;28;45182;-64
2022/03/29 05:36:44;;;;;;;;;29.25;23.50;;;;;16.21;32.55;100531.84;4978529;28;45286;-64
2022/03/29 05:39:10;;;;;;;;;24.75;19.25;;;;;16.20;32.84;100534.53;4979591;28;45358;-64
2022/03/29 05:41:36;;;;;;;;;27.25;25.00;;;;;16.20;32.59;100526.56;4979399;28;45569;-64
2022/03/29 05:44:01;;;;;;;;;28.50;23.00;;;;;16.19;32.67;100523.06;4979579;28;45331;-63
2022/03/29 05:49:10;;;;;;;;;24.50;23.00;;;;;16.14;32.93;100527.72;4979587;28;45319;-64
2022/03/29 05:51:36;;;;;;;;;27.75;23.25;;;;;16.16;32.86;100546.19;4979110;28;46286;-64
2022/03/29 05:54:01;;;;;;;;;30.00;24.25;;;;;16.14;32.53;100540.97;4979318;28;45501;-64
2022/03/29 05:56:27;;;;;;;;;24.50;23.50;;;;;16.14;33.01;100540.97;5032693;27;45372;-63
2022/03/29 05:58:53;;;;;;;;;31.00;27.75;;;;;16.13;32.69;100533.94;4967955;27;45323;-64
2022/03/29 06:01:19;;;;;;;;;29.75;24.00;;;;;16.11;32.79;100524.31;4979209;28;45372;-64
2022/03/29 06:03:45;;;;;;;;;33.00;26.00;;;;;16.10;32.63;100531.41;4971255;28;45611;-64
2022/03/29 06:06:10;;;;;;;;;30.25;24.25;;;;;16.11;32.67;100538.41;4969536;28;45414;-64
2022/03/29 06:08:36;;;;;;;;;27.50;21.75;;;;;16.12;32.95;100541.94;4971744;28;45248;-64
2022/03/29 06:11:02;;;;;;;;;29.00;24.00;;;;;16.10;32.98;100547.31;4970984;27;45289;-63
2022/03/29 06:13:28;;;;;;;;;25.75;24.75;;;;;16.09;32.86;100551.75;4972432;28;45403;-65
2022/03/29 06:15:53;;;;;;;;;29.75;25.50;;;;;16.07;33.02;100558.91;4970976;28;45364;-65
2022/03/29 06:18:20;;;;;;;;;28.00;23.25;;;;;16.09;32.97;100567.66;4966024;28;45575;-65
2022/03/29 06:20:46;;;;;;;;;33.50;25.00;;;;;16.07;33.33;100571.28;4965659;28;45715;-64
2022/03/29 06:23:11;;;;;;;;;26.00;20.50;;;;;16.09;33.11;100583.53;4972536;28;45381;-58
2022/03/29 06:25:36;;;;;;;;;26.50;22.75;;;;;16.08;32.87;100575.66;4976842;28;45834;-60
2022/03/29 06:28:02;;;;;;;;;31.25;23.25;;;;;16.08;33.02;100568.56;4966258;28;45478;-57
2022/03/29 06:30:28;;;;;;;;;39.00;29.50;;;;;16.09;32.89;100572.09;4977638;28;48393;-60
2022/03/29 06:32:53;;;;;;;;;27.25;24.50;;;;;16.06;33.35;100567.78;4964727;28;45383;-60
2022/03/29 06:35:24;;;;;;;;;27.75;25.00;;;;;16.08;32.98;100573.88;4969752;28;45295;-59
2022/03/29 06:37:58;;;;;;;;;29.50;26.75;;;;;16.09;33.06;100566.78;4967577;28;45480;-61
2022/03/29 06:40:26;;;;;;;;;27.75;23.50;;;;;16.09;33.37;100572.09;4975296;28;47636;-57
2022/03/29 06:42:53;;;;;;;;;41.00;29.00;;;;;16.09;32.96;100567.66;4959717;28;45335;-59
2022/03/29 06:45:19;;;;;;;;;30.00;26.50;;;;;16.08;32.87;100570.38;4971768;28;45194;-61
2022/03/29 06:47:45;;;;;;;;;33.75;27.75;;;;;16.08;33.36;100573.00;4971965;28;45415;-60
2022/03/29 06:50:11;;;;;;;;;32.25;29.75;;;;;16.11;33.61;100566.72;4966719;28;46467;-61
2022/03/29 06:52:41;;;;;;;;;32.00;25.00;;;;;16.11;33.01;100564.06;4990061;28;45221;-61
2022/03/29 06:55:09;;;;;;;;;31.00;27.25;;;;;16.09;33.23;100567.66;4967605;28;45407;-61
2022/03/29 06:57:35;;;;;;;;;32.75;31.25;;;;;16.09;33.54;100565.00;4975268;27;45267;-61
2022/03/29 07:00:05;;;;;;;;;34.25;29.50;;;;;16.11;33.68;100558.78;4971512;28;45389;-61
2022/03/29 07:02:31;;;;;;;;;28.25;27.00;;;;;16.14;33.60;100556.88;4976153;28;45513;-60
2022/03/29 07:04:56;;;;;;;;;34.50;29.50;;;;;16.15;33.79;100553.28;4971633;28;45350;-60
2022/03/29 07:07:22;;;;;;;;;31.25;26.50;;;;;16.15;33.18;100548.00;4972345;28;45315;-59
2022/03/29 07:12:33;;;;;;;;;29.50;25.50;;;;;16.17;33.59;100546.13;4971131;28;45410;-58
2022/03/29 07:14:58;;;;;;;;;29.25;26.75;;;;;16.20;33.66;100545.13;4969921;28;45241;-59
2022/03/29 07:17:24;;;;;;;;;24.50;21.50;;;;;16.23;33.72;100553.81;4971067;28;45466;-61
2022/03/29 07:19:50;;;;;;;;;40.25;31.25;;;;;16.23;33.55;100548.53;4978865;28;46503;-60
2022/03/29 07:22:16;;;;;;;;;26.75;25.75;;;;;16.26;33.88;100547.53;4977818;28;46097;-60
2022/03/29 07:24:42;;;;;;;;;32.50;30.00;;;;;16.27;33.51;100543.97;4969832;28;45256;-60
2022/03/29 07:27:08;;;;;;;;;30.50;26.50;;;;;16.30;33.61;100538.56;4970291;28;45537;-60
2022/03/29 07:29:33;;;;;;;;;44.50;33.50;;;;;16.32;33.52;100531.38;4969459;28;45922;-63
2022/03/29 07:31:59;;;;;;;;;37.50;32.75;;;;;16.34;33.38;100536.59;4969995;28;45411;-63
2022/03/29 07:34:24;;;;;;;;;33.00;29.50;;;;;16.35;33.67;100533.91;4968999;28;45419;-63
2022/03/29 07:36:50;;;;;;;;;35.25;30.00;;;;;16.36;33.90;100529.47;4969626;28;45530;-63
2022/03/29 07:39:16;;;;;;;;;28.00;26.25;;;;;16.37;33.62;100532.03;4968133;28;45792;-63
2022/03/29 07:41:41;;;;;;;;;36.00;30.00;;;;;16.38;33.86;100531.13;4969713;28;45460;-63
2022/03/29 07:44:07;;;;;;;;;38.75;29.75;;;;;16.41;33.99;100530.13;4969067;28;45241;-63
2022/03/29 07:46:32;;;;;;;;;33.25;24.75;;;;;16.42;33.79;100535.38;4970270;28;45539;-63
2022/03/29 07:48:58;;;;;;;;;34.25;31.50;;;;;16.41;33.58;100522.19;4960120;28;45323;-62
2022/03/29 07:51:24;;;;;;;;;27.25;23.50;;;;;16.44;33.74;100532.69;4958303;28;45289;-63
2022/03/29 07:53:49;;;;;;;;;37.75;30.50;;;;;16.49;33.99;100524.50;4958771;28;45559;-62
2022/03/29 07:56:14;;;;;;;;;33.00;28.50;;;;;16.49;34.03;100520.06;4990405;28;45167;-63
2022/03/29 07:58:40;;;;;;;;;40.00;27.75;;;;;16.52;33.64;100517.28;4962215;27;46184;-62
2022/03/29 08:01:06;;;;;;;;;27.00;24.00;;;;;16.55;33.70;100519.81;4981976;28;45234;-62
2022/03/29 08:03:34;;;;;;;;;28.75;26.00;;;;;16.58;33.82;100510.88;4969811;28;45303;-63
2022/03/29 08:06:01;;;;;;;;;40.75;30.25;;;;;16.61;33.88;100512.53;4971607;28;45331;-63
2022/03/29 08:08:29;;;;;;;;;41.75;34.00;;;;;16.64;33.87;100509.72;4972089;28;46135;-62
2022/03/29 08:10:54;;;;;;;;;44.75;34.75;;;;;16.67;33.94;100507.81;4960522;28;45250;-62
2022/03/29 08:13:20;;;;;;;;;30.50;26.25;;;;;16.71;33.86;100506.72;4958378;28;45542;-62
2022/03/29 08:15:49;;;;;;;;;38.25;32.00;;;;;16.74;33.98;100500.44;4958564;28;45233;-62
2022/03/29 08:18:16;;;;;;;;;33.50;26.00;;;;;16.79;33.82;100500.25;4958278;28;46326;-62
2022/03/29 08:20:42;;;;;;;;;39.00;30.75;;;;;16.84;34.17;100500.91;4958123;28;45436;-62
2022/03/29 08:23:09;;;;;;;;;38.50;30.75;;;;;16.87;33.78;100493.66;4957075;28;45273;-62
2022/03/29 08:25:37;;;;;;;;;30.75;25.75;;;;;16.92;34.07;100492.63;4956939;28;45727;-63
2022/03/29 08:28:03;;;;;;;;;32.75;29.50;;;;;16.94;33.79;100482.81;4956814;28;47195;-62
2022/03/29 08:30:30;;;;;;;;;35.00;32.00;;;;;17.01;33.85;100490.41;4958195;28;45354;-62
2022/03/29 08:32:57;;;;;;;;;34.75;31.00;;;;;17.06;33.88;100485.75;4958067;28;45327;-62
2022/03/29 08:35:22;;;;;;;;;32.25;29.25;;;;;17.10;33.77;100486.50;4957868;28;45331;-62
2022/03/29 08:37:48;;;;;;;;;31.50;26.50;;;;;17.12;33.64;100474.03;4956507;28;48255;-62
2022/03/29 08:40:16;;;;;;;;;26.50;22.00;;;;;17.19;33.75;100474.59;4957929;28;45402;-62
2022/03/29 08:42:49;;;;;;;;;32.00;26.00;;;;;17.29;33.93;100473.22;4958036;28;45518;-62
2022/03/29 08:45:16;;;;;;;;;32.75;28.50;;;;;17.33;33.58;100474.81;4957893;28;45247;-62
2022/03/29 08:47:44;;;;;;;;;31.75;26.50;;;;;17.40;33.74;100464.78;4958235;28;47064;-62
2022/03/29 08:50:12;;;;;;;;;34.50;27.50;;;;;17.47;33.75;100466.22;4957660;28;45381;-62
2022/03/29 08:52:39;;;;;;;;;33.75;29.25;;;;;17.54;33.98;100457.00;4958017;28;45386;-62
2022/03/29 08:55:06;;;;;;;;;34.75;28.75;;;;;17.61;33.62;100462.91;4956317;28;45532;-62
2022/03/29 08:57:32;;;;;;;;;33.75;30.75;;;;;17.69;33.70;100460.72;4957954;28;45297;-62
2022/03/29 08:59:58;;;;;;;;;31.75;27.50;;;;;17.76;33.84;100449.78;4960901;28;45253;-62
2022/03/29 09:02:25;;;;;;;;;34.25;30.00;;;;;17.82;33.76;100449.47;4975854;28;45304;-63
2022/03/29 09:05:16;;;;;;;;;39.75;29.50;;;;;17.91;33.71;100438.41;4977095;28;45436;-61
2022/03/29 09:07:51;;;;;;;;;35.50;27.50;;;;;17.99;34.02;100441.56;4992019;28;45406;-62
2022/03/29 09:10:18;;;;;;;;;28.25;25.75;;;;;18.07;33.68;100441.19;4964967;28;45278;-62
2022/03/29 09:12:44;;;;;;;;;40.50;33.00;;;;;18.14;33.63;100450.56;4977076;28;45390;-62
2022/03/29 09:15:10;;;;;;;;;33.00;28.50;;;;;18.22;33.65;100460.81;4975877;28;45357;-62
2022/03/29 09:17:44;;;;;;;;;35.50;30.75;;;;;18.29;33.53;100456.91;4976891;28;47137;-61
2022/03/29 09:20:21;;;;;;;;;31.25;28.25;;;;;18.37;33.79;100445.88;4977016;28;45399;-62
2022/03/29 09:22:55;;;;;;;;;28.75;26.25;;;;;18.43;33.52;100439.41;4975623;28;45418;-61
2022/03/29 09:25:36;;;;;;;;;37.00;28.50;;;;;18.54;33.48;100437.03;4976779;28;45458;-61
2022/03/29 09:28:05;;;;;;;;;40.75;33.50;;;;;18.63;33.51;100441.03;4976780;28;45277;-62
2022/03/29 09:30:41;;;;;;;;;38.50;32.50;;;;;18.73;33.15;100444.03;4976706;28;45404;-62
2022/03/29 09:33:19;;;;;;;;;37.75;31.50;;;;;18.81;33.52;100433.84;4976234;28;45334;-62
2022/03/29 09:36:04;;;;;;;;;39.00;31.50;;;;;18.93;33.26;100419.91;4978231;28;45652;-61
2022/03/29 09:38:39;;;;;;;;;36.75;32.25;;;;;19.05;33.67;100429.03;4979481;28;47010;-62
2022/03/29 09:41:06;;;;;;;;;43.75;32.00;;;;;19.14;33.35;100409.91;4979462;28;45337;-62
2022/03/29 09:43:34;;;;;;;;;35.25;29.50;;;;;19.28;33.05;100410.91;4979689;28;45252;-61
2022/03/29 09:46:01;;;;;;;;;40.50;32.25;;;;;19.39;33.16;100407.66;4978489;28;45939;-62
2022/03/29 09:48:30;;;;;;;;;40.00;31.25;;;;;19.49;33.08;100412.34;4979360;28;46112;-62
2022/03/29 09:51:15;;;;;;;;;36.25;30.75;;;;;19.64;33.04;100415.13;4979326;28;45325;-61
2022/03/29 09:53:44;;;;;;;;;32.50;31.25;;;;;19.76;32.99;100417.06;4979511;28;45487;-62
2022/03/29 09:56:12;;;;;;;;;32.50;25.25;;;;;19.91;33.37;100422.47;4979496;28;45335;-61
2022/03/29 09:58:39;;;;;;;;;40.50;30.75;;;;;20.05;33.07;100417.22;4963818;28;45442;-61
2022/03/29 10:01:06;;;;;;;;;31.50;27.25;;;;;20.21;33.35;100419.81;4972273;28;45390;-61
2022/03/29 10:03:34;;;;;;;;;36.75;31.75;;;;;20.37;33.50;100411.75;4978045;28;45259;-61
2022/03/29 10:06:04;;;;;;;;;36.00;31.25;;;;;20.53;32.71;100405.50;4979188;28;45356;-61
2022/03/29 10:11:19;;;;;;;;;37.50;30.00;;;;;20.83;33.11;100402.75;4959714;28;45388;-60
2022/03/29 10:13:46;;;;;;;;;32.00;30.50;;;;;20.97;32.54;100398.34;4958810;28;45363;-61
2022/03/29 10:16:14;;;;;;;;;43.00;33.25;;;;;21.09;32.49;100393.09;4959745;28;45313;-62
2022/03/29 10:18:42;;;;;;;;;41.25;32.00;;;;;21.21;32.71;100394.13;4959725;28;47115;-61
2022/03/29 10:21:11;;;;;;;;;30.50;26.75;;;;;21.34;32.45;100394.19;4959470;28;45353;-61
2022/03/29 10:23:37;;;;;;;;;35.75;31.25;;;;;21.46;32.37;100389.00;4971374;28;45321;-61
2022/03/29 10:26:04;;;;;;;;;42.25;33.50;;;;;21.56;32.41;100387.47;4961052;28;45311;-61
2022/03/29 10:28:30;;;;;;;;;37.00;31.25;;;;;21.69;32.79;100391.03;4958473;28;45519;-61
2022/03/29 10:30:56;;;;;;;;;32.25;30.00;;;;;21.83;32.67;100386.59;4959672;28;45215;-61
2022/03/29 10:33:27;;;;;;;;;89.00;84.67;;;;;21.93;31.97;100374.31;4959789;28;45245;-62
2022/03/29 10:35:58;;;;;;;;;36.25;31.50;;;;;22.06;32.54;100374.31;4959234;28;45316;-61
2022/03/29 10:38:46;;;;;;;;;39.25;31.25;;;;;22.21;32.29;100373.28;4958306;28;47572;-62
2022/03/29 10:41:27;;;;;;;;;39.50;34.50;;;;;22.35;32.18;100364.31;4959193;28;45262;-62
2022/03/29 10:44:08;;;;;;;;;33.25;29.25;;;;;22.48;32.10;100363.47;4959590;28;45468;-61
2022/03/29 10:46:50;;;;;;;;;41.00;34.00;;;;;22.59;31.91;100362.69;4958660;28;45438;-62
2022/03/29 10:49:25;;;;;;;;;40.50;33.25;;;;;22.68;32.00;100359.38;4959388;28;46093;-62
2022/03/29 10:52:05;;;;;;;;;32.00;30.00;;;;;22.77;32.19;100355.19;4959029;28;45363;-62
2022/03/29 10:54:37;;;;;;;;;44.50;33.00;;;;;22.82;31.87;100350.38;4958095;28;45591;-61
2022/03/29 10:57:26;;;;;;;;;29.75;27.75;;;;;22.86;31.74;100360.72;4959134;28;45431;-61
2022/03/29 11:00:17;;;;;;;;;33.75;29.00;;;;;22.88;31.64;100342.72;4961629;28;46018;-62
2022/03/29 11:03:08;;;;;;;;;35.25;29.75;;;;;22.97;31.42;100335.84;4978432;28;45431;-62
2022/03/29 11:05:34;;;;;;;;;35.50;30.50;;;;;23.02;31.63;100324.81;4978548;28;45442;-61
2022/03/29 11:07:59;;;;;;;;;34.00;25.50;;;;;23.09;31.46;100333.25;4986801;28;45309;-61
2022/03/29 11:10:39;;;;;;;;;34.25;30.25;;;;;23.10;31.53;100325.09;4958979;28;45458;-62
2022/03/29 11:13:22;;;;;;;;;33.25;30.50;;;;;23.24;31.50;100340.19;4958968;28;45364;-61
2022/03/29 11:15:48;;;;;;;;;37.75;29.50;;;;;23.28;31.44;100341.69;4958982;28;45309;-60
2022/03/29 11:18:32;;;;;;;;;38.75;30.00;;;;;23.34;31.20;100341.19;4959100;28;45316;-60
2022/03/29 11:21:05;;;;;;;;;35.50;30.75;;;;;23.37;31.13;100337.47;4957336;28;46780;-61